createdAt,value
2018-12-05T00:00:18.239Z,2.38
2018-12-05T00:01:18.225Z,2.28
2018-12-05T00:02:18.206Z,2.35
2018-12-05T00:03:18.190Z,2.35
2018-12-05T00:04:18.175Z,2.34
2018-12-05T00:05:18.173Z,2.34
2018-12-05T00:06:18.145Z,2.38
2018-12-05T00:07:18.129Z,2.36
2018-12-05T00:08:18.112Z,2.3
2018-12-05T00:09:18.099Z,2.3
2018-12-05T00:10:18.083Z,2.2
2018-12-05T00:11:18.067Z,2.31
2018-12-05T00:12:18.049Z,2.27
2018-12-05T00:13:18.035Z,2.27
2018-12-05T00:14:18.018Z,2.25
2018-12-05T00:15:18.001Z,2.28
2018-12-05T00:16:17.990Z,2.27
2018-12-05T00:17:17.969Z,2.23
2018-12-05T00:18:17.956Z,2.27
2018-12-05T00:19:17.943Z,2.25
2018-12-05T00:20:17.924Z,2.27
2018-12-05T00:21:17.906Z,2.17
2018-12-05T00:22:17.891Z,2.18
2018-12-05T00:23:17.879Z,2.27
2018-12-05T00:24:17.861Z,2.18
2018-12-05T00:25:17.848Z,2.14
2018-12-05T00:26:17.831Z,2.21
2018-12-05T00:27:17.814Z,2.18
2018-12-05T00:28:17.811Z,2.21
2018-12-05T00:29:17.778Z,2.17
2018-12-05T00:30:17.768Z,2.06
2018-12-05T00:31:17.755Z,2.2
2018-12-05T00:32:17.731Z,2.18
2018-12-05T00:33:17.718Z,2.1
2018-12-05T00:34:17.698Z,2.07
2018-12-05T00:35:17.687Z,2.16
2018-12-05T00:36:17.674Z,2.17
2018-12-05T00:37:17.655Z,2.12
2018-12-05T00:38:17.640Z,2.09
2018-12-05T00:39:17.622Z,2.1
2018-12-05T00:40:17.606Z,2.14
2018-12-05T00:41:17.590Z,2.06
2018-12-05T00:42:17.574Z,2.1
2018-12-05T00:43:17.554Z,2.17
2018-12-05T00:44:17.553Z,2.12
2018-12-05T00:45:17.534Z,2.1
2018-12-05T00:46:17.508Z,2.14
2018-12-05T00:47:17.496Z,2.05
2018-12-05T00:48:17.482Z,2.06
2018-12-05T00:49:17.464Z,2.02
2018-12-05T00:50:17.452Z,2.06
2018-12-05T00:51:17.428Z,2.07
2018-12-05T00:52:17.414Z,2.09
2018-12-05T00:53:17.398Z,2.1
2018-12-05T00:54:17.380Z,2.12
2018-12-05T00:55:17.367Z,2.06
2018-12-05T00:56:17.356Z,2.09
2018-12-05T00:57:17.340Z,2.05
2018-12-05T00:58:17.322Z,2.03
2018-12-05T00:59:17.308Z,2.12
2018-12-05T01:00:17.288Z,2.1
2018-12-05T01:01:17.270Z,2.09
2018-12-05T01:02:17.255Z,2.05
2018-12-05T01:03:17.237Z,2.06
2018-12-05T01:04:17.223Z,2.1
2018-12-05T01:05:17.208Z,2.03
2018-12-05T01:06:17.193Z,2.06
2018-12-05T01:07:17.177Z,2.03
2018-12-05T01:08:17.166Z,2.07
2018-12-05T01:09:17.149Z,2.09
2018-12-05T01:10:17.127Z,2.05
2018-12-05T01:11:17.112Z,2.02
2018-12-05T01:12:17.096Z,1.99
2018-12-05T01:13:17.079Z,2.02
2018-12-05T01:14:17.062Z,1.88
2018-12-05T01:15:17.046Z,1.98
2018-12-05T01:16:17.031Z,1.9
2018-12-05T01:17:17.013Z,1.9
2018-12-05T01:18:17.000Z,1.99
2018-12-05T01:19:16.984Z,1.93
2018-12-05T01:20:16.965Z,1.88
2018-12-05T01:21:16.952Z,1.87
2018-12-05T01:22:16.939Z,1.88
2018-12-05T01:23:16.919Z,1.91
2018-12-05T01:24:16.907Z,1.88
2018-12-05T01:25:16.887Z,1.86
2018-12-05T01:26:16.870Z,1.9
2018-12-05T01:27:16.854Z,1.91
2018-12-05T01:28:16.839Z,1.83
2018-12-05T01:29:16.822Z,1.88
2018-12-05T01:30:16.805Z,1.83
2018-12-05T01:31:16.797Z,1.79
2018-12-05T01:32:16.527Z,1.83
2018-12-05T01:33:16.757Z,1.88
2018-12-05T01:34:16.744Z,1.8
2018-12-05T01:35:16.730Z,1.77
2018-12-05T01:36:16.715Z,1.79
2018-12-05T01:37:16.694Z,1.81
2018-12-05T01:38:16.677Z,1.83
2018-12-05T01:39:16.672Z,1.87
2018-12-05T01:40:16.645Z,1.8
2018-12-05T01:41:16.631Z,1.9
2018-12-05T01:42:16.616Z,1.8
2018-12-05T01:43:16.600Z,1.83
2018-12-05T01:44:16.582Z,1.81
2018-12-05T01:45:16.566Z,1.77
2018-12-05T01:46:16.548Z,1.76
2018-12-05T01:47:16.533Z,1.76
2018-12-05T01:48:16.529Z,1.68
2018-12-05T01:49:16.500Z,1.76
2018-12-05T01:50:16.490Z,1.66
2018-12-05T01:51:16.468Z,1.76
2018-12-05T01:52:16.452Z,1.69
2018-12-05T01:53:16.436Z,1.73
2018-12-05T01:54:16.422Z,1.73
2018-12-05T01:55:16.407Z,1.69
2018-12-05T01:56:16.391Z,1.79
2018-12-05T01:57:16.383Z,1.8
2018-12-05T01:58:16.363Z,1.77
2018-12-05T01:59:16.346Z,1.83
2018-12-05T02:00:16.333Z,1.77
2018-12-05T02:01:16.306Z,1.73
2018-12-05T02:02:16.292Z,1.7
2018-12-05T02:03:16.274Z,1.72
2018-12-05T02:04:16.261Z,1.7
2018-12-05T02:05:16.242Z,1.7
2018-12-05T02:06:17.660Z,1.7
2018-12-05T02:07:16.211Z,1.7
2018-12-05T02:08:16.194Z,1.65
2018-12-05T02:09:16.187Z,1.66
2018-12-05T02:10:16.162Z,1.6
2018-12-05T02:11:16.148Z,1.65
2018-12-05T02:12:16.128Z,1.62
2018-12-05T02:13:16.113Z,1.54
2018-12-05T02:14:16.104Z,1.55
2018-12-05T02:15:16.081Z,1.6
2018-12-05T02:16:16.063Z,1.58
2018-12-05T02:17:16.047Z,1.54
2018-12-05T02:18:16.034Z,1.52
2018-12-05T02:19:16.016Z,1.58
2018-12-05T02:20:16.000Z,1.51
2018-12-05T02:21:15.992Z,1.44
2018-12-05T02:22:15.968Z,1.52
2018-12-05T02:23:15.956Z,1.5
2018-12-05T02:24:15.933Z,1.48
2018-12-05T02:25:15.920Z,1.55
2018-12-05T02:26:15.902Z,1.55
2018-12-05T02:27:15.886Z,1.5
2018-12-05T02:28:15.871Z,1.47
2018-12-05T02:29:15.852Z,1.45
2018-12-05T02:30:15.925Z,1.45
2018-12-05T02:31:15.821Z,1.47
2018-12-05T02:32:15.803Z,1.41
2018-12-05T02:33:15.789Z,1.41
2018-12-05T02:34:15.807Z,1.44
2018-12-05T02:35:15.755Z,1.48
2018-12-05T02:36:15.744Z,1.42
2018-12-05T02:37:15.721Z,1.42
2018-12-05T02:38:15.706Z,1.42
2018-12-05T02:39:15.690Z,1.44
2018-12-05T02:40:15.685Z,1.42
2018-12-05T02:41:15.660Z,1.42
2018-12-05T02:42:15.646Z,1.36
2018-12-05T02:43:15.623Z,1.33
2018-12-05T02:44:15.611Z,1.32
2018-12-05T02:45:15.603Z,1.3
2018-12-05T02:46:15.577Z,1.32
2018-12-05T02:47:15.561Z,1.3
2018-12-05T02:48:15.549Z,1.37
2018-12-05T02:49:15.525Z,1.34
2018-12-05T02:50:15.514Z,1.3
2018-12-05T02:51:15.507Z,1.32
2018-12-05T02:52:15.478Z,1.24
2018-12-05T02:53:15.460Z,1.27
2018-12-05T02:54:15.451Z,1.37
2018-12-05T02:55:15.433Z,1.26
2018-12-05T02:56:15.411Z,1.26
2018-12-05T02:57:15.399Z,1.26
2018-12-05T02:58:15.381Z,1.22
2018-12-05T02:59:15.362Z,1.22
2018-12-05T03:00:15.353Z,1.26
2018-12-05T03:01:15.331Z,1.23
2018-12-05T03:02:15.311Z,1.29
2018-12-05T03:03:15.292Z,1.22
2018-12-05T03:04:15.286Z,1.32
2018-12-05T03:05:15.264Z,1.3
2018-12-05T03:06:15.255Z,1.26
2018-12-05T03:07:15.229Z,1.27
2018-12-05T03:08:15.230Z,1.29
2018-12-05T03:09:15.205Z,1.36
2018-12-05T03:10:15.185Z,1.27
2018-12-05T03:11:15.163Z,1.27
2018-12-05T03:12:15.150Z,1.23
2018-12-05T03:13:15.130Z,1.32
2018-12-05T03:14:15.124Z,1.34
2018-12-05T03:15:15.105Z,1.34
2018-12-05T03:16:15.091Z,1.27
2018-12-05T03:17:15.155Z,1.32
2018-12-05T03:18:15.053Z,1.32
2018-12-05T03:19:15.034Z,1.29
2018-12-05T03:20:15.079Z,1.29
2018-12-05T03:21:14.999Z,1.32
2018-12-05T03:22:14.985Z,1.32
2018-12-05T03:23:14.967Z,1.29
2018-12-05T03:24:14.957Z,1.3
2018-12-05T03:25:14.937Z,1.37
2018-12-05T03:26:14.930Z,1.33
2018-12-05T03:27:14.902Z,1.32
2018-12-05T03:28:14.896Z,1.34
2018-12-05T03:29:14.867Z,1.27
2018-12-05T03:30:14.886Z,1.33
2018-12-05T03:31:14.866Z,1.32
2018-12-05T03:32:14.840Z,1.26
2018-12-05T03:33:14.872Z,1.32
2018-12-05T03:34:14.792Z,1.27
2018-12-05T03:35:14.770Z,1.24
2018-12-05T03:36:14.759Z,1.3
2018-12-05T03:37:14.740Z,1.24
2018-12-05T03:38:14.756Z,1.27
2018-12-05T03:39:14.704Z,1.23
2018-12-05T03:40:14.688Z,1.29
2018-12-05T03:41:14.667Z,1.27
2018-12-05T03:42:14.654Z,1.29
2018-12-05T03:43:14.640Z,1.27
2018-12-05T03:44:14.621Z,1.32
2018-12-05T03:45:14.604Z,1.23
2018-12-05T03:46:14.587Z,1.16
2018-12-05T03:47:14.576Z,1.26
2018-12-05T03:48:14.554Z,1.26
2018-12-05T03:49:14.543Z,1.27
2018-12-05T03:50:14.519Z,1.3
2018-12-05T03:51:14.504Z,1.2
2018-12-05T03:52:14.494Z,1.37
2018-12-05T03:53:14.471Z,1.29
2018-12-05T03:54:14.451Z,1.32
2018-12-05T03:55:14.448Z,1.32
2018-12-05T03:56:14.424Z,1.33
2018-12-05T03:57:14.407Z,1.3
2018-12-05T03:58:14.392Z,1.33
2018-12-05T03:59:14.373Z,1.32
2018-12-05T04:00:14.356Z,1.3
2018-12-05T04:01:14.339Z,1.29
2018-12-05T04:02:14.328Z,1.32
2018-12-05T04:03:14.330Z,1.32
2018-12-05T04:04:14.289Z,1.27
2018-12-05T04:05:14.300Z,1.32
2018-12-05T04:06:14.265Z,1.33
2018-12-05T04:07:14.230Z,1.4
2018-12-05T04:08:14.240Z,1.36
2018-12-05T04:09:14.225Z,1.3
2018-12-05T04:10:14.190Z,1.41
2018-12-05T04:11:14.148Z,1.37
2018-12-05T04:12:14.135Z,1.29
2018-12-05T04:13:14.117Z,1.32
2018-12-05T04:14:14.098Z,1.32
2018-12-05T04:15:14.081Z,1.33
2018-12-05T04:16:14.065Z,1.37
2018-12-05T04:17:14.043Z,1.37
2018-12-05T04:18:15.390Z,1.32
2018-12-05T04:19:14.013Z,1.4
2018-12-05T04:20:13.996Z,1.37
2018-12-05T04:21:13.978Z,1.33
2018-12-05T04:22:13.962Z,1.34
2018-12-05T04:23:13.948Z,1.37
2018-12-05T04:24:13.935Z,1.4
2018-12-05T04:25:13.914Z,1.3
2018-12-05T04:26:13.897Z,1.33
2018-12-05T04:27:13.877Z,1.32
2018-12-05T04:28:13.864Z,1.36
2018-12-05T04:29:13.847Z,1.3
2018-12-05T04:30:13.832Z,1.37
2018-12-05T04:31:13.813Z,1.36
2018-12-05T04:32:15.849Z,1.41
2018-12-05T04:33:13.784Z,1.4
2018-12-05T04:34:13.767Z,1.36
2018-12-05T04:35:13.755Z,1.41
2018-12-05T04:36:13.737Z,1.3
2018-12-05T04:37:13.714Z,1.3
2018-12-05T04:38:13.701Z,1.34
2018-12-05T04:39:13.680Z,1.41
2018-12-05T04:40:13.666Z,1.37
2018-12-05T04:41:13.657Z,1.3
2018-12-05T04:42:13.640Z,1.37
2018-12-05T04:43:13.618Z,1.29
2018-12-05T04:44:13.611Z,1.4
2018-12-05T04:45:13.597Z,1.32
2018-12-05T04:46:13.568Z,1.42
2018-12-05T04:47:13.563Z,1.36
2018-12-05T04:48:13.538Z,1.36
2018-12-05T04:49:13.529Z,1.3
2018-12-05T04:50:13.502Z,1.36
2018-12-05T04:51:13.509Z,1.3
2018-12-05T04:52:13.468Z,1.37
2018-12-05T04:53:13.450Z,1.32
2018-12-05T04:54:13.441Z,1.33
2018-12-05T04:55:13.419Z,1.33
2018-12-05T04:56:13.433Z,1.3
2018-12-05T04:57:13.395Z,1.32
2018-12-05T04:58:13.371Z,1.33
2018-12-05T04:59:13.351Z,1.4
2018-12-05T05:00:13.335Z,1.33
2018-12-05T05:01:13.400Z,1.33
2018-12-05T05:02:13.316Z,1.36
2018-12-05T05:03:13.285Z,1.32
2018-12-05T05:04:13.271Z,1.45
2018-12-05T05:05:13.251Z,1.4
2018-12-05T05:06:13.236Z,1.37
2018-12-05T05:07:13.227Z,1.37
2018-12-05T05:08:13.221Z,1.4
2018-12-05T05:09:13.188Z,1.4
2018-12-05T05:10:13.171Z,1.4
2018-12-05T05:11:13.164Z,1.44
2018-12-05T05:12:13.188Z,1.42
2018-12-05T05:13:13.121Z,1.36
2018-12-05T05:14:13.103Z,1.41
2018-12-05T05:15:13.090Z,1.42
2018-12-05T05:16:13.075Z,1.34
2018-12-05T05:17:13.051Z,1.4
2018-12-05T05:18:13.041Z,1.44
2018-12-05T05:19:13.024Z,1.37
2018-12-05T05:20:14.400Z,1.47
2018-12-05T05:21:13.005Z,1.41
2018-12-05T05:22:12.976Z,1.41
2018-12-05T05:23:12.976Z,1.42
2018-12-05T05:24:12.943Z,1.41
2018-12-05T05:25:12.924Z,1.44
2018-12-05T05:26:12.911Z,1.42
2018-12-05T05:27:12.892Z,1.42
2018-12-05T05:28:12.873Z,1.41
2018-12-05T05:29:12.856Z,1.45
2018-12-05T05:30:12.844Z,1.42
2018-12-05T05:31:12.828Z,1.42
2018-12-05T05:32:12.813Z,1.42
2018-12-05T05:33:12.792Z,1.34
2018-12-05T05:34:12.781Z,1.41
2018-12-05T05:35:12.759Z,1.44
2018-12-05T05:36:12.764Z,1.44
2018-12-05T05:37:12.732Z,1.4
2018-12-05T05:38:12.721Z,1.44
2018-12-05T05:39:12.694Z,1.48
2018-12-05T05:40:12.683Z,1.42
2018-12-05T05:41:12.657Z,1.41
2018-12-05T05:42:12.645Z,1.47
2018-12-05T05:43:12.629Z,1.4
2018-12-05T05:44:12.737Z,1.45
2018-12-05T05:45:12.363Z,1.44
2018-12-05T05:46:12.577Z,1.44
2018-12-05T05:47:12.560Z,1.4
2018-12-05T05:48:12.547Z,1.47
2018-12-05T05:49:12.525Z,1.48
2018-12-05T05:50:12.517Z,1.42
2018-12-05T05:51:12.497Z,1.51
2018-12-05T05:52:12.476Z,1.37
2018-12-05T05:53:12.461Z,1.41
2018-12-05T05:54:12.447Z,1.37
2018-12-05T05:55:12.426Z,1.44
2018-12-05T05:56:12.413Z,1.44
2018-12-05T05:57:12.400Z,1.4
2018-12-05T05:58:12.380Z,1.41
2018-12-05T05:59:12.362Z,1.45
2018-12-05T06:00:12.347Z,1.44
2018-12-05T06:01:12.328Z,1.45
2018-12-05T06:02:12.316Z,1.45
2018-12-05T06:03:12.298Z,1.41
2018-12-05T06:04:12.286Z,1.41
2018-12-05T06:05:12.270Z,1.45
2018-12-05T06:06:12.247Z,1.42
2018-12-05T06:07:12.233Z,1.37
2018-12-05T06:08:12.218Z,1.4
2018-12-05T06:09:12.205Z,1.41
2018-12-05T06:10:12.185Z,1.42
2018-12-05T06:11:12.170Z,1.4
2018-12-05T06:12:12.148Z,1.36
2018-12-05T06:13:12.136Z,1.3
2018-12-05T06:14:12.115Z,1.34
2018-12-05T06:15:12.101Z,1.32
2018-12-05T06:16:12.083Z,1.33
2018-12-05T06:17:12.075Z,1.29
2018-12-05T06:18:12.056Z,1.36
2018-12-05T06:19:12.037Z,1.34
2018-12-05T06:20:12.019Z,1.37
2018-12-05T06:21:12.004Z,1.34
2018-12-05T06:22:11.986Z,1.3
2018-12-05T06:23:11.975Z,1.34
2018-12-05T06:24:11.962Z,1.27
2018-12-05T06:25:12.078Z,1.23
2018-12-05T06:26:11.923Z,1.33
2018-12-05T06:27:11.903Z,1.32
2018-12-05T06:28:11.884Z,1.27
2018-12-05T06:29:11.870Z,1.36
2018-12-05T06:30:11.852Z,1.26
2018-12-05T06:31:11.843Z,1.34
2018-12-05T06:32:11.821Z,1.32
2018-12-05T06:33:11.881Z,1.27
2018-12-05T06:34:11.786Z,1.29
2018-12-05T06:35:11.772Z,1.29
2018-12-05T06:36:11.753Z,1.23
2018-12-05T06:37:11.736Z,1.29
2018-12-05T06:38:11.720Z,1.18
2018-12-05T06:39:11.711Z,1.16
2018-12-05T06:40:11.690Z,1.15
2018-12-05T06:41:11.674Z,1.09
2018-12-05T06:42:11.652Z,1.12
2018-12-05T06:43:11.637Z,1.16
2018-12-05T06:44:11.622Z,1.14
2018-12-05T06:45:11.606Z,1.16
2018-12-05T06:46:11.591Z,1.11
2018-12-05T06:47:11.578Z,1.08
2018-12-05T06:48:11.554Z,1.12
2018-12-05T06:49:11.539Z,1.05
2018-12-05T06:50:11.527Z,1.16
2018-12-05T06:51:11.542Z,1.02
2018-12-05T06:52:11.490Z,1.14
2018-12-05T06:53:11.473Z,1.09
2018-12-05T06:54:11.454Z,1.02
2018-12-05T06:55:11.436Z,1.02
2018-12-05T06:56:11.420Z,1.09
2018-12-05T06:57:11.403Z,1.02
2018-12-05T06:58:11.388Z,1.06
2018-12-05T06:59:11.372Z,1.06
2018-12-05T07:00:12.919Z,1.04
2018-12-05T07:01:11.337Z,0.97
2018-12-05T07:02:11.321Z,1.14
2018-12-05T07:03:11.303Z,1.06
2018-12-05T07:04:11.286Z,1.12
2018-12-05T07:05:11.524Z,1.09
2018-12-05T07:06:11.256Z,1.15
2018-12-05T07:07:11.236Z,1.14
2018-12-05T07:08:11.229Z,1.12
2018-12-05T07:09:11.209Z,1.11
2018-12-05T07:10:11.193Z,1.14
2018-12-05T07:11:11.171Z,1.18
2018-12-05T07:12:11.156Z,1.22
2018-12-05T07:13:11.144Z,1.23
2018-12-05T07:14:11.117Z,1.33
2018-12-05T07:15:11.105Z,1.34
2018-12-05T07:16:11.087Z,1.23
2018-12-05T07:17:10.832Z,1.32
2018-12-05T07:18:11.053Z,1.3
2018-12-05T07:19:11.037Z,1.32
2018-12-05T07:20:11.020Z,1.32
2018-12-05T07:21:11.004Z,1.42
2018-12-05T07:22:10.989Z,1.37
2018-12-05T07:23:10.972Z,1.44
2018-12-05T07:24:11.496Z,1.44
2018-12-05T07:25:10.940Z,1.44
2018-12-05T07:26:10.921Z,1.48
2018-12-05T07:27:10.904Z,1.45
2018-12-05T07:28:10.889Z,1.51
2018-12-05T07:29:10.869Z,1.45
2018-12-05T07:30:10.889Z,1.5
2018-12-05T07:31:10.843Z,1.59
2018-12-05T07:32:10.822Z,1.59
2018-12-05T07:33:10.807Z,1.55
2018-12-05T07:34:10.789Z,1.55
2018-12-05T07:35:10.773Z,1.68
2018-12-05T07:36:10.755Z,1.77
2018-12-05T07:37:10.743Z,1.79
2018-12-05T07:38:10.731Z,1.72
2018-12-05T07:39:10.713Z,1.76
2018-12-05T07:40:10.695Z,1.77
2018-12-05T07:41:10.675Z,1.77
2018-12-05T07:42:10.663Z,1.79
2018-12-05T07:43:10.647Z,1.81
2018-12-05T07:44:10.635Z,1.86
2018-12-05T07:45:10.613Z,1.86
2018-12-05T07:46:10.595Z,1.93
2018-12-05T07:47:10.578Z,1.99
2018-12-05T07:48:10.570Z,1.93
2018-12-05T07:49:10.555Z,1.95
2018-12-05T07:50:10.534Z,2.07
2018-12-05T07:51:10.522Z,2.06
2018-12-05T07:52:10.504Z,2.07
2018-12-05T07:53:10.482Z,2.05
2018-12-05T07:54:10.466Z,2.16
2018-12-05T07:55:10.450Z,2.12
2018-12-05T07:56:10.434Z,2.14
2018-12-05T07:57:10.422Z,2.24
2018-12-05T07:58:10.447Z,2.18
2018-12-05T07:59:10.150Z,2.27
2018-12-05T08:00:10.377Z,2.2
2018-12-05T08:01:10.358Z,2.27
2018-12-05T08:02:10.340Z,2.34
2018-12-05T08:03:10.335Z,2.31
2018-12-05T08:04:10.309Z,2.39
2018-12-05T08:05:10.297Z,2.41
2018-12-05T08:06:10.290Z,2.36
2018-12-05T08:07:10.017Z,2.41
2018-12-05T08:08:10.248Z,2.54
2018-12-05T08:09:10.229Z,2.49
2018-12-05T08:10:10.215Z,2.53
2018-12-05T08:11:10.197Z,2.56
2018-12-05T08:12:10.184Z,2.49
2018-12-05T08:13:10.169Z,2.63
2018-12-05T08:14:11.427Z,2.54
2018-12-05T08:15:10.138Z,2.56
2018-12-05T08:16:10.117Z,2.48
2018-12-05T08:17:10.107Z,2.6
2018-12-05T08:18:10.085Z,2.63
2018-12-05T08:19:10.076Z,2.61
2018-12-05T08:20:10.061Z,2.67
2018-12-05T08:21:10.043Z,2.67
2018-12-05T08:22:10.028Z,2.71
2018-12-05T08:23:10.016Z,2.66
2018-12-05T08:24:09.994Z,2.72
2018-12-05T08:25:09.978Z,2.67
2018-12-05T08:26:09.961Z,2.74
2018-12-05T08:27:09.947Z,2.69
2018-12-05T08:28:09.942Z,2.74
2018-12-05T08:29:09.915Z,2.82
2018-12-05T08:30:09.901Z,2.87
2018-12-05T08:31:09.882Z,2.84
2018-12-05T08:32:10.302Z,2.89
2018-12-05T08:33:09.860Z,2.96
2018-12-05T08:34:09.840Z,2.92
2018-12-05T08:35:09.824Z,2.93
2018-12-05T08:36:09.807Z,3.06
2018-12-05T08:37:09.795Z,3.06
2018-12-05T08:38:09.782Z,3.14
2018-12-05T08:39:09.770Z,3.1
2018-12-05T08:40:09.744Z,3.11
2018-12-05T08:41:09.735Z,3.1
2018-12-05T08:42:09.714Z,3.13
2018-12-05T08:43:09.700Z,3.11
2018-12-05T08:44:09.687Z,3.18
2018-12-05T08:45:09.668Z,3.23
2018-12-05T08:46:09.658Z,3.29
2018-12-05T08:47:09.639Z,3.29
2018-12-05T08:48:09.626Z,3.28
2018-12-05T08:49:09.609Z,3.31
2018-12-05T08:50:09.610Z,3.36
2018-12-05T08:51:09.581Z,3.24
2018-12-05T08:52:09.564Z,3.28
2018-12-05T08:53:09.557Z,3.33
2018-12-05T08:54:09.534Z,3.33
2018-12-05T08:55:09.520Z,3.31
2018-12-05T08:56:09.523Z,3.35
2018-12-05T08:57:09.488Z,3.35
2018-12-05T08:58:09.473Z,3.32
2018-12-05T08:59:09.465Z,3.43
2018-12-05T09:00:09.200Z,3.35
2018-12-05T09:01:09.436Z,3.36
2018-12-05T09:02:09.418Z,3.36
2018-12-05T09:03:09.402Z,3.47
2018-12-05T09:04:09.387Z,3.47
2018-12-05T09:05:09.377Z,3.55
2018-12-05T09:06:09.352Z,3.55
2018-12-05T09:07:09.342Z,3.61
2018-12-05T09:08:09.349Z,3.5
2018-12-05T09:09:09.313Z,3.66
2018-12-05T09:10:09.294Z,3.7
2018-12-05T09:11:09.279Z,3.68
2018-12-05T09:12:09.265Z,3.62
2018-12-05T09:13:09.253Z,3.66
2018-12-05T09:14:09.239Z,3.7
2018-12-05T09:15:09.659Z,3.72
2018-12-05T09:16:09.208Z,3.7
2018-12-05T09:17:09.190Z,3.8
2018-12-05T09:18:09.181Z,3.72
2018-12-05T09:19:09.161Z,3.79
2018-12-05T09:20:09.148Z,3.88
2018-12-05T09:21:09.138Z,3.87
2018-12-05T09:22:09.120Z,3.88
2018-12-05T09:23:09.106Z,3.87
2018-12-05T09:24:09.096Z,3.94
2018-12-05T09:25:09.162Z,3.9
2018-12-05T09:26:09.059Z,3.98
2018-12-05T09:27:09.055Z,3.93
2018-12-05T09:28:09.032Z,3.93
2018-12-05T09:29:09.017Z,3.98
2018-12-05T09:30:09.009Z,4
2018-12-05T09:31:08.991Z,4.06
2018-12-05T09:32:08.973Z,4.05
2018-12-05T09:33:08.962Z,4.06
2018-12-05T09:34:08.946Z,4.05
2018-12-05T09:35:08.931Z,4.11
2018-12-05T09:36:08.917Z,4.12
2018-12-05T09:37:08.899Z,4.15
2018-12-05T09:38:08.887Z,4.15
2018-12-05T09:39:08.880Z,4.09
2018-12-05T09:40:08.855Z,4.12
2018-12-05T09:41:08.842Z,4.23
2018-12-05T09:42:08.583Z,4.18
2018-12-05T09:43:08.814Z,4.23
2018-12-05T09:44:08.800Z,4.26
2018-12-05T09:45:08.787Z,4.26
2018-12-05T09:46:08.781Z,4.26
2018-12-05T09:47:15.696Z,4.26
2018-12-05T09:48:08.754Z,4.27
2018-12-05T09:49:08.733Z,4.33
2018-12-05T09:50:08.711Z,4.36
2018-12-05T09:51:08.695Z,4.41
2018-12-05T09:52:08.685Z,4.41
2018-12-05T09:53:08.669Z,4.4
2018-12-05T09:54:08.656Z,4.5
2018-12-05T09:55:08.639Z,4.45
2018-12-05T09:56:08.627Z,4.48
2018-12-05T09:57:08.616Z,4.47
2018-12-05T09:58:08.598Z,4.5
2018-12-05T09:59:08.583Z,4.54
2018-12-05T10:00:08.575Z,4.52
2018-12-05T10:01:08.553Z,4.69
2018-12-05T10:02:08.538Z,4.63
2018-12-05T10:03:08.529Z,4.6
2018-12-05T10:04:08.512Z,4.66
2018-12-05T10:05:08.495Z,4.72
2018-12-05T10:06:08.482Z,4.72
2018-12-05T10:07:08.473Z,4.67
2018-12-05T10:08:08.457Z,4.69
2018-12-05T10:09:08.448Z,4.72
2018-12-05T10:10:08.425Z,4.8
2018-12-05T10:11:08.514Z,4.78
2018-12-05T10:12:08.398Z,4.86
2018-12-05T10:13:08.384Z,4.91
2018-12-05T10:14:08.388Z,4.89
2018-12-05T10:15:08.364Z,4.96
2018-12-05T10:16:08.343Z,4.97
2018-12-05T10:17:08.333Z,4.94
2018-12-05T10:18:08.323Z,5.02
2018-12-05T10:19:08.305Z,5.03
2018-12-05T10:20:08.287Z,5.09
2018-12-05T10:21:08.276Z,5.02
2018-12-05T10:22:08.259Z,5.06
2018-12-05T10:23:08.249Z,5.06
2018-12-05T10:24:08.234Z,5.07
2018-12-05T10:25:08.241Z,5.09
2018-12-05T10:26:08.205Z,5.18
2018-12-05T10:27:08.200Z,5.28
2018-12-05T10:28:08.264Z,5.18
2018-12-05T10:29:08.164Z,5.22
2018-12-05T10:30:08.151Z,5.22
2018-12-05T10:31:08.139Z,5.2
2018-12-05T10:32:09.859Z,5.24
2018-12-05T10:33:08.108Z,5.3
2018-12-05T10:34:08.095Z,5.35
2018-12-05T10:35:08.086Z,5.3
2018-12-05T10:36:08.153Z,5.42
2018-12-05T10:37:08.053Z,5.43
2018-12-05T10:38:08.041Z,5.45
2018-12-05T10:39:08.026Z,5.45
2018-12-05T10:40:08.013Z,5.49
2018-12-05T10:41:07.997Z,5.54
2018-12-05T10:42:07.992Z,5.48
2018-12-05T10:43:07.968Z,5.43
2018-12-05T10:44:07.959Z,5.51
2018-12-05T10:45:07.947Z,5.49
2018-12-05T10:46:07.936Z,5.56
2018-12-05T10:47:07.917Z,5.61
2018-12-05T10:48:07.909Z,5.58
2018-12-05T10:49:07.890Z,5.61
2018-12-05T10:50:07.881Z,5.6
2018-12-05T10:51:07.956Z,5.67
2018-12-05T10:52:07.847Z,5.67
2018-12-05T10:53:07.837Z,5.51
2018-12-05T10:54:07.824Z,5.67
2018-12-05T10:55:07.808Z,5.72
2018-12-05T10:56:07.797Z,5.64
2018-12-05T10:57:07.783Z,5.68
2018-12-05T10:58:07.769Z,5.74
2018-12-05T10:59:07.759Z,5.75
2018-12-05T11:00:07.747Z,5.68
2018-12-05T11:01:07.728Z,5.83
2018-12-05T11:02:07.715Z,5.74
2018-12-05T11:03:07.699Z,5.76
2018-12-05T11:04:07.694Z,5.86
2018-12-05T11:05:07.679Z,5.86
2018-12-05T11:06:07.666Z,5.74
2018-12-05T11:07:07.650Z,5.86
2018-12-05T11:08:07.642Z,5.89
2018-12-05T11:09:07.622Z,5.9
2018-12-05T11:10:07.608Z,5.9
2018-12-05T11:11:07.596Z,5.85
2018-12-05T11:12:07.589Z,5.93
2018-12-05T11:13:07.568Z,5.91
2018-12-05T11:14:07.558Z,5.93
2018-12-05T11:15:07.796Z,5.91
2018-12-05T11:16:07.534Z,5.9
2018-12-05T11:17:07.519Z,6.03
2018-12-05T11:18:07.506Z,6.04
2018-12-05T11:19:07.493Z,5.99
2018-12-05T11:20:07.480Z,5.96
2018-12-05T11:21:07.465Z,6.09
2018-12-05T11:22:07.457Z,6.01
2018-12-05T11:23:07.438Z,6.03
2018-12-05T11:24:07.429Z,6.06
2018-12-05T11:25:07.414Z,6.01
2018-12-05T11:26:07.401Z,6.14
2018-12-05T11:27:07.389Z,6.11
2018-12-05T11:28:07.374Z,6.06
2018-12-05T11:29:07.361Z,6.08
2018-12-05T11:30:07.349Z,6.06
2018-12-05T11:31:07.339Z,6.06
2018-12-05T11:32:07.323Z,6.19
2018-12-05T11:33:07.312Z,6.18
2018-12-05T11:34:07.300Z,6.19
2018-12-05T11:35:07.283Z,6.25
2018-12-05T11:36:07.273Z,6.31
2018-12-05T11:37:07.259Z,6.22
2018-12-05T11:38:07.244Z,6.19
2018-12-05T11:39:07.231Z,6.27
2018-12-05T11:40:07.223Z,6.27
2018-12-05T11:41:07.208Z,6.27
2018-12-05T11:42:07.264Z,6.33
2018-12-05T11:43:07.190Z,6.3
2018-12-05T11:44:07.168Z,6.34
2018-12-05T11:45:06.913Z,6.28
2018-12-05T11:46:07.397Z,6.38
2018-12-05T11:47:07.133Z,6.34
2018-12-05T11:48:07.120Z,6.34
2018-12-05T11:49:07.105Z,6.33
2018-12-05T11:50:07.090Z,6.36
2018-12-05T11:51:07.084Z,6.37
2018-12-05T11:52:07.067Z,6.37
2018-12-05T11:53:07.056Z,6.52
2018-12-05T11:54:07.042Z,6.49
2018-12-05T11:55:07.030Z,6.51
2018-12-05T11:56:07.016Z,6.49
2018-12-05T11:57:07.001Z,6.52
2018-12-05T11:58:07.065Z,6.49
2018-12-05T11:59:06.988Z,6.56
2018-12-05T12:00:06.972Z,6.56
2018-12-05T12:01:06.950Z,6.58
2018-12-05T12:02:06.937Z,6.58
2018-12-05T12:03:06.980Z,6.61
2018-12-05T12:04:06.681Z,6.59
2018-12-05T12:05:06.903Z,6.7
2018-12-05T12:06:06.892Z,6.62
2018-12-05T12:07:06.878Z,6.67
2018-12-05T12:08:06.863Z,6.62
2018-12-05T12:09:06.852Z,6.7
2018-12-05T12:10:06.839Z,6.69
2018-12-05T12:11:06.823Z,6.7
2018-12-05T12:12:06.820Z,6.66
2018-12-05T12:13:06.877Z,6.71
2018-12-05T12:14:06.786Z,6.71
2018-12-05T12:15:06.778Z,6.7
2018-12-05T12:16:06.766Z,6.69
2018-12-05T12:17:06.749Z,6.7
2018-12-05T12:18:06.747Z,6.73
2018-12-05T12:19:06.726Z,6.74
2018-12-05T12:20:06.712Z,6.74
2018-12-05T12:21:06.700Z,6.74
2018-12-05T12:22:06.687Z,6.71
2018-12-05T12:23:06.675Z,6.84
2018-12-05T12:24:06.664Z,6.74
2018-12-05T12:25:06.657Z,6.81
2018-12-05T12:26:06.642Z,6.77
2018-12-05T12:27:06.636Z,6.79
2018-12-05T12:28:06.663Z,6.76
2018-12-05T12:29:06.603Z,6.81
2018-12-05T12:30:06.588Z,6.87
2018-12-05T12:31:06.576Z,6.81
2018-12-05T12:32:06.569Z,6.8
2018-12-05T12:33:07.642Z,6.8
2018-12-05T12:34:06.543Z,6.87
2018-12-05T12:35:06.542Z,6.91
2018-12-05T12:36:06.515Z,6.91
2018-12-05T12:37:06.502Z,6.88
2018-12-05T12:38:06.490Z,6.91
2018-12-05T12:39:06.479Z,6.84
2018-12-05T12:40:06.467Z,6.87
2018-12-05T12:41:06.451Z,6.87
2018-12-05T12:42:06.445Z,6.8
2018-12-05T12:43:06.430Z,6.8
2018-12-05T12:44:06.413Z,6.8
2018-12-05T12:45:06.398Z,6.89
2018-12-05T12:46:06.386Z,6.84
2018-12-05T12:47:06.372Z,6.84
2018-12-05T12:48:06.371Z,6.85
2018-12-05T12:49:06.355Z,6.87
2018-12-05T12:50:06.345Z,6.88
2018-12-05T12:51:06.326Z,6.84
2018-12-05T12:52:06.313Z,6.85
2018-12-05T12:53:06.304Z,6.88
2018-12-05T12:54:06.285Z,6.81
2018-12-05T12:55:06.272Z,6.85
2018-12-05T12:56:06.263Z,6.84
2018-12-05T12:57:06.250Z,6.85
2018-12-05T12:58:06.242Z,6.84
2018-12-05T12:59:06.228Z,6.8
2018-12-05T13:00:06.223Z,6.87
2018-12-05T13:01:06.202Z,6.8
2018-12-05T13:02:06.187Z,6.81
2018-12-05T13:03:06.175Z,6.88
2018-12-05T13:04:06.164Z,6.92
2018-12-05T13:05:06.150Z,6.81
2018-12-05T13:06:06.135Z,6.81
2018-12-05T13:07:06.127Z,6.7
2018-12-05T13:08:06.116Z,6.71
2018-12-05T13:09:06.100Z,6.69
2018-12-05T13:10:06.086Z,6.74
2018-12-05T13:11:06.079Z,6.69
2018-12-05T13:12:06.061Z,6.7
2018-12-05T13:13:06.129Z,6.66
2018-12-05T13:14:06.039Z,6.64
2018-12-05T13:15:06.023Z,6.61
2018-12-05T13:16:06.010Z,6.61
2018-12-05T13:17:05.998Z,6.58
2018-12-05T13:18:05.994Z,6.43
2018-12-05T13:19:05.972Z,6.44
2018-12-05T13:20:05.965Z,6.46
2018-12-05T13:21:05.948Z,6.54
2018-12-05T13:22:05.937Z,6.49